Byers, Texas
Current Conditions -  °F | °C
As of 11:52 AM on Sunday 23 Nov 2014 (Local Time) from KSPS Reporting Station
Clear Clear  
Wind Chill: 69°   Ceiling: Unl
Heat Index: 69°   Visibility: 10mi
Dew Point: 36°   Wind: 23mph
Humidity: 30%   Direction: 280°W
Pressure: 29.38"   Gusts: 33mph
Location:  34.07°N, 98.19°W
Report Text: KSPS 231752Z 28020G29KT 10SM CLR 21/02 A2938 RMK AO2 PK WND 27029/1747 SLP944 T02060022 10206 20094 58019
Loading
Personal Weather Stations






























Interactive Weather Map New forecast layout! Learn more

10-Day Weather Forecast

Advertisements
Track Severe Weather on mobile